Terminal Aerodrome Forecast
Issued by NWS

Home | Current Version | Previous Version | Text Only | Print | Product List | Glossary On
Versions: 1 2 3 4 5 6 7 8 9 10 11 12 13 14 15 16 17 18 19 20 21 22
209
FTUS41 KCLE 252007 AAA
TAFFDY
TAF AMD
KFDY 252007Z 2520/2618 26020G30KT P6SM SCT025 OVC040
      TEMPO 2522/2602 -SN BKN025
     FM260200 27012G18KT P6SM OVC025
     FM261400 24008KT P6SM SCT025 OVC100=

USA.gov is the U.S. government's official web portal to all federal, state and local government web resources and services.